Time;durP1;ratioP1;P1;durP2;ratioP2;P2;SDS_P1;SDS_P2;PMS_P1;PMS_P2;Temp;Humidity;BMP_temperature;BMP_pressure;BME280_temperature;BME280_humidity;BME280_pressure;Samples;Min_cycle;Max_cycle;Signal;HPM_P1;HPM_P2
2021/03/14 00:01:14;;;;;;;;;;;;;;;6.92;72.05;98478.50;5137069;27;19930;-71
2021/03/14 00:03:42;;;;;;;;;;;;;;;6.84;72.04;98470.06;5137099;27;19930;-71
2021/03/14 00:06:10;;;;;;;;;;;;;;;6.84;72.36;98459.13;5136704;27;20335;-71
2021/03/14 00:08:37;;;;;;;;;;;;;;;6.92;72.78;98457.34;5136635;27;19930;-71
2021/03/14 00:11:06;;;;;;;;;;;;;;;6.97;72.58;98468.31;5136568;27;19927;-71
2021/03/14 00:13:35;;;;;;;;;;;;;;;6.89;72.69;98463.28;5136591;27;19924;-71
2021/03/14 00:16:04;;;;;;;;;;;;;;;6.93;72.80;98464.13;5136655;27;19924;-71
2021/03/14 00:18:33;;;;;;;;;;;;;;;6.97;72.46;98470.84;5136472;27;19923;-71
2021/03/14 00:21:01;;;;;;;;;;;;;;;6.88;72.74;98466.69;5136378;27;19984;-71
2021/03/14 00:23:29;;;;;;;;;;;;;;;6.90;72.99;98475.13;5136430;27;19927;-71
2021/03/14 00:25:57;;;;;;;;;;;;;;;6.83;73.44;98470.94;5136218;27;20391;-71
2021/03/14 00:28:25;;;;;;;;;;;;;;;6.83;73.19;98468.41;5136361;27;19923;-71
2021/03/14 00:30:53;;;;;;;;;;;;;;;6.84;73.46;98464.19;5136456;27;19923;-71
2021/03/14 00:33:21;;;;;;;;;;;;;;;6.89;73.12;98464.97;5136252;27;19923;-71
2021/03/14 00:35:49;;;;;;;;;;;;;;;6.76;73.34;98461.69;5136099;27;19970;-70
2021/03/14 00:38:17;;;;;;;;;;;;;;;6.82;74.05;98460.78;5136032;27;19973;-70
2021/03/14 00:40:45;;;;;;;;;;;;;;;6.85;73.75;98466.69;5136092;27;19934;-71
2021/03/14 00:43:14;;;;;;;;;;;;;;;6.93;73.60;98464.13;5135933;27;19937;-71
2021/03/14 00:45:42;;;;;;;;;;;;;;;6.94;73.29;98471.72;5136047;27;19930;-71
2021/03/14 00:48:31;;;;;;;;;;;;;;;7.01;73.73;98472.50;5135972;27;19923;-71
2021/03/14 00:51:00;;;;;;;;;;;;;;;7.03;73.25;98473.38;5135852;27;19954;-70
2021/03/14 00:53:38;;;;;;;;;;;;;;;6.98;73.43;98472.56;5135243;27;19924;-71
2021/03/14 00:56:11;;;;;;;;;;;;;;;7.05;73.16;98469.13;5113760;28;20018;-70
2021/03/14 00:58:39;;;;;;;;;;;;;;;7.12;73.08;98460.63;5115348;28;19923;-71
2021/03/14 01:01:07;;;;;;;;;;;;;;;7.12;72.59;98465.69;5115102;28;19930;-71
2021/03/14 01:03:38;;;;;;;;;;;;;;;7.11;72.42;98456.38;5115238;28;19927;-71
2021/03/14 01:06:08;;;;;;;;;;;;;;;7.01;72.19;98463.22;5114106;28;19930;-70
2021/03/14 01:08:36;;;;;;;;;;;;;;;6.91;72.73;98455.69;5114120;28;19923;-71
2021/03/14 01:11:04;;;;;;;;;;;;;;;6.82;73.12;98460.78;5114014;28;19924;-71
2021/03/14 01:13:42;;;;;;;;;;;;;;;6.74;73.70;98458.31;5115014;28;19924;-71
2021/03/14 01:16:10;;;;;;;;;;;;;;;6.69;73.43;98460.84;5113661;28;19962;-71
2021/03/14 01:18:50;;;;;;;;;;;;;;;6.69;73.51;98460.84;5114952;28;19924;-71
2021/03/14 01:21:19;;;;;;;;;;;;;;;6.75;73.68;98465.91;5114800;28;20327;-71
2021/03/14 01:23:47;;;;;;;;;;;;;;;6.82;73.57;98465.88;5115042;28;19993;-71
2021/03/14 01:26:15;;;;;;;;;;;;;;;6.84;73.59;98467.53;5114753;28;19924;-71
2021/03/14 01:28:42;;;;;;;;;;;;;;;6.75;73.60;98476.06;5114922;28;19971;-71
2021/03/14 01:31:10;;;;;;;;;;;;;;;6.73;73.73;98472.69;5114782;28;19924;-71
2021/03/14 01:33:38;;;;;;;;;;;;;;;6.72;73.86;98486.19;5114676;28;20434;-71
2021/03/14 01:36:07;;;;;;;;;;;;;;;6.71;74.00;98479.47;5114457;28;19928;-71
2021/03/14 01:38:36;;;;;;;;;;;;;;;6.83;73.83;98478.56;5114904;28;20026;-71
2021/03/14 01:41:05;;;;;;;;;;;;;;;6.87;74.00;98484.44;5114523;28;19938;-71
2021/03/14 01:43:35;;;;;;;;;;;;;;;6.82;74.05;98478.53;5114557;28;20396;-71
2021/03/14 01:46:05;;;;;;;;;;;;;;;6.83;74.40;98475.16;5114525;28;19924;-71
2021/03/14 01:48:34;;;;;;;;;;;;;;;6.91;74.33;98470.91;5114488;28;19962;-71
2021/03/14 01:51:02;;;;;;;;;;;;;;;7.06;73.85;98463.19;5114395;28;19924;-71
2021/03/14 01:53:31;;;;;;;;;;;;;;;7.12;73.48;98468.22;5114411;28;19952;-71
2021/03/14 01:56:00;;;;;;;;;;;;;;;7.24;73.32;98460.53;5124126;28;19923;-71
2021/03/14 01:58:28;;;;;;;;;;;;;;;7.30;72.71;98460.47;5135215;28;19924;-71
2021/03/14 02:00:55;;;;;;;;;;;;;;;7.36;72.26;98463.00;5134801;28;19976;-71
2021/03/14 02:03:24;;;;;;;;;;;;;;;7.47;72.43;98452.72;5134835;28;19958;-71
2021/03/14 02:05:52;;;;;;;;;;;;;;;7.65;71.32;98450.91;5136480;27;20416;-71
2021/03/14 02:08:21;;;;;;;;;;;;;;;7.80;70.26;98458.34;5139344;27;19969;-71
2021/03/14 02:10:51;;;;;;;;;;;;;;;7.87;69.62;98454.91;5139009;27;20377;-71
2021/03/14 02:13:21;;;;;;;;;;;;;;;7.89;69.21;98453.19;5138940;27;19966;-71
2021/03/14 02:15:52;;;;;;;;;;;;;;;7.82;69.31;98459.19;5138907;27;20376;-71
2021/03/14 02:18:21;;;;;;;;;;;;;;;7.76;69.80;98453.31;5138859;27;19923;-71
2021/03/14 02:20:49;;;;;;;;;;;;;;;7.73;69.31;98456.72;5138793;27;19976;-71
2021/03/14 02:23:21;;;;;;;;;;;;;;;7.67;69.95;98463.56;5138729;27;19953;-71
2021/03/14 02:25:50;;;;;;;;;;;;;;;7.62;69.52;98453.47;5139088;27;19951;-71
2021/03/14 02:28:19;;;;;;;;;;;;;;;7.76;68.48;98451.63;5138887;27;19923;-71
2021/03/14 02:30:47;;;;;;;;;;;;;;;7.89;68.29;98444.75;5138634;27;19924;-71
2021/03/14 02:33:17;;;;;;;;;;;;;;;7.91;67.18;98446.41;5138538;27;20266;-71
2021/03/14 02:35:45;;;;;;;;;;;;;;;7.88;67.65;98453.22;5138807;27;19935;-70
2021/03/14 02:38:14;;;;;;;;;;;;;;;7.77;68.03;98463.50;5138457;27;19931;-71
2021/03/14 02:40:42;;;;;;;;;;;;;;;7.70;68.33;98471.97;5138408;27;20373;-71
2021/03/14 02:43:10;;;;;;;;;;;;;;;7.68;68.54;98472.88;5138426;27;19924;-71
2021/03/14 02:45:40;;;;;;;;;;;;;;;7.71;68.14;98468.59;5138521;27;19959;-71
2021/03/14 02:48:08;;;;;;;;;;;;;;;7.76;67.45;98474.47;5138638;27;19927;-71
2021/03/14 02:50:37;;;;;;;;;;;;;;;7.80;67.89;98476.13;5138195;27;19924;-71
2021/03/14 02:53:05;;;;;;;;;;;;;;;7.73;67.54;98487.19;5138237;27;19953;-71
2021/03/14 02:55:33;;;;;;;;;;;;;;;7.65;68.06;98483.91;5137874;27;19930;-71
2021/03/14 02:58:02;;;;;;;;;;;;;;;7.54;68.34;98484.81;5138118;27;20384;-71
2021/03/14 03:00:31;;;;;;;;;;;;;;;7.43;68.77;98477.31;5138410;27;19930;-71
2021/03/14 03:03:00;;;;;;;;;;;;;;;7.49;69.05;98476.41;5120010;27;19930;-71
2021/03/14 03:05:28;;;;;;;;;;;;;;;7.41;69.40;98479.03;5119894;27;19965;-71
2021/03/14 03:07:57;;;;;;;;;;;;;;;7.32;69.07;98476.53;5137899;27;19928;-70
2021/03/14 03:10:26;;;;;;;;;;;;;;;7.32;70.10;98479.06;5138178;27;19930;-71
2021/03/14 03:12:56;;;;;;;;;;;;;;;7.34;69.44;98485.00;5137773;27;19927;-71
2021/03/14 03:15:25;;;;;;;;;;;;;;;7.42;69.29;98476.47;5138077;27;19927;-71
2021/03/14 03:17:53;;;;;;;;;;;;;;;7.42;69.20;98480.69;5137103;27;19939;-71
2021/03/14 03:20:25;;;;;;;;;;;;;;;7.41;68.78;98473.94;5137750;27;19927;-71
2021/03/14 03:22:52;;;;;;;;;;;;;;;7.41;69.70;98476.50;5137824;27;20326;-71
2021/03/14 03:25:20;;;;;;;;;;;;;;;7.36;69.58;98476.53;5137631;27;20407;-71
2021/03/14 03:27:48;;;;;;;;;;;;;;;7.38;69.37;98471.44;5137482;27;19923;-71
2021/03/14 03:30:16;;;;;;;;;;;;;;;7.33;69.39;98475.69;5137500;27;20014;-71
2021/03/14 03:32:45;;;;;;;;;;;;;;;7.29;69.18;98468.97;5137348;27;19930;-70
2021/03/14 03:35:16;;;;;;;;;;;;;;;7.36;69.05;98475.69;5137403;27;19924;-71
2021/03/14 03:37:44;;;;;;;;;;;;;;;7.31;69.11;98473.19;5137250;27;19931;-71
2021/03/14 03:40:14;;;;;;;;;;;;;;;7.27;69.36;98480.81;5137292;27;20432;-70
2021/03/14 03:42:46;;;;;;;;;;;;;;;7.32;68.61;98468.91;5137496;27;19923;-70
2021/03/14 03:45:14;;;;;;;;;;;;;;;7.27;68.96;98470.69;5137234;27;19947;-70
2021/03/14 03:47:42;;;;;;;;;;;;;;;7.25;68.71;98477.44;5137182;27;19972;-71
2021/03/14 03:50:12;;;;;;;;;;;;;;;7.29;68.85;98474.03;5136964;27;19923;-71
2021/03/14 03:52:41;;;;;;;;;;;;;;;7.22;68.71;98482.53;5137241;27;20384;-71
2021/03/14 03:55:11;;;;;;;;;;;;;;;7.11;68.94;98479.22;5137049;27;19932;-71
2021/03/14 03:57:40;;;;;;;;;;;;;;;7.11;68.31;98480.06;5136927;27;19930;-70
2021/03/14 04:00:10;;;;;;;;;;;;;;;7.13;68.92;98477.50;5136798;27;19946;-71
2021/03/14 04:02:39;;;;;;;;;;;;;;;7.14;68.66;98486.81;5136920;27;19923;-70
2021/03/14 04:05:08;;;;;;;;;;;;;;;7.08;68.45;98486.88;5136652;27;19931;-70
2021/03/14 04:07:37;;;;;;;;;;;;;;;6.97;68.96;98476.78;5136723;27;20262;-70
2021/03/14 04:10:07;;;;;;;;;;;;;;;6.93;69.61;98466.66;5136743;27;20018;-71
2021/03/14 04:12:37;;;;;;;;;;;;;;;6.84;69.58;98461.66;5136638;27;20034;-71
2021/03/14 04:15:06;;;;;;;;;;;;;;;6.80;69.18;98453.22;5136920;27;19923;-71
2021/03/14 04:17:35;;;;;;;;;;;;;;;6.82;69.47;98441.34;5136468;27;19924;-71
2021/03/14 04:20:04;;;;;;;;;;;;;;;6.60;69.69;98433.03;5136565;27;19927;-71
2021/03/14 04:22:32;;;;;;;;;;;;;;;6.51;69.96;98430.53;5136352;27;20293;-71
2021/03/14 04:25:01;;;;;;;;;;;;;;;6.61;69.96;98432.19;5136427;27;19965;-70
2021/03/14 04:27:29;;;;;;;;;;;;;;;6.65;69.89;98427.94;5135940;27;19930;-71
2021/03/14 04:29:58;;;;;;;;;;;;;;;6.68;69.20;98421.16;5135853;27;19966;-71
2021/03/14 04:32:26;;;;;;;;;;;;;;;6.77;69.23;98437.19;5136274;27;19950;-71
2021/03/14 04:34:55;;;;;;;;;;;;;;;6.82;69.09;98435.44;5136215;27;19923;-71
2021/03/14 04:37:23;;;;;;;;;;;;;;;6.82;68.61;98441.34;5136148;27;19930;-70
2021/03/14 04:39:51;;;;;;;;;;;;;;;6.82;69.16;98441.34;5136332;27;20352;-70
2021/03/14 04:42:19;;;;;;;;;;;;;;;6.77;69.02;98447.31;5136131;27;19969;-70
2021/03/14 04:44:49;;;;;;;;;;;;;;;6.48;69.22;98435.63;5136052;27;20411;-71
2021/03/14 04:47:18;;;;;;;;;;;;;;;6.46;69.98;98432.25;5136218;27;20350;-70
2021/03/14 04:49:46;;;;;;;;;;;;;;;6.48;70.13;98425.47;5135931;27;19966;-71
2021/03/14 04:52:18;;;;;;;;;;;;;;;6.42;70.26;98430.59;5136178;27;19923;-71
2021/03/14 04:54:47;;;;;;;;;;;;;;;6.28;70.54;98434.88;5135958;27;19928;-71
2021/03/14 04:57:16;;;;;;;;;;;;;;;6.20;71.47;98443.34;5135691;27;20387;-71
2021/03/14 04:59:44;;;;;;;;;;;;;;;6.20;71.24;98459.38;5135815;27;19924;-71
2021/03/14 05:02:13;;;;;;;;;;;;;;;6.08;71.29;98459.41;5135658;27;19924;-71
2021/03/14 05:04:43;;;;;;;;;;;;;;;5.87;71.78;98454.41;5135960;27;19923;-71
2021/03/14 05:07:12;;;;;;;;;;;;;;;5.80;72.60;98452.72;5135546;27;19923;-71
2021/03/14 05:09:41;;;;;;;;;;;;;;;5.79;72.27;98451.00;5135916;27;19923;-71
2021/03/14 05:12:09;;;;;;;;;;;;;;;5.82;72.83;98456.06;5117205;27;19955;-71
2021/03/14 05:14:39;;;;;;;;;;;;;;;5.92;72.80;98447.66;5135480;27;19924;-71
2021/03/14 05:17:08;;;;;;;;;;;;;;;6.03;72.58;98448.47;5135418;27;19923;-70
2021/03/14 05:19:36;;;;;;;;;;;;;;;6.09;72.18;98456.06;5135399;27;19933;-70
2021/03/14 05:22:04;;;;;;;;;;;;;;;6.12;71.93;98443.34;5135369;27;20292;-70
2021/03/14 05:24:33;;;;;;;;;;;;;;;6.02;72.02;98444.25;5135572;27;19924;-71
2021/03/14 05:27:03;;;;;;;;;;;;;;;5.94;72.47;98445.94;5135319;27;19976;-71
2021/03/14 05:29:31;;;;;;;;;;;;;;;6.01;72.17;98448.47;5135259;27;19931;-71
2021/03/14 05:31:59;;;;;;;;;;;;;;;6.11;72.32;98449.28;5135224;27;19929;-71
2021/03/14 05:34:27;;;;;;;;;;;;;;;6.16;72.14;98447.59;5135165;27;19924;-71
2021/03/14 05:36:55;;;;;;;;;;;;;;;6.22;72.13;98452.63;5135354;27;19927;-70
2021/03/14 05:39:23;;;;;;;;;;;;;;;6.16;72.10;98452.66;5135050;27;19966;-70
2021/03/14 05:41:51;;;;;;;;;;;;;;;6.06;72.28;98444.25;5135057;27;19923;-71
2021/03/14 05:44:20;;;;;;;;;;;;;;;6.03;72.71;98448.47;5135234;27;19930;-71
2021/03/14 05:46:47;;;;;;;;;;;;;;;6.00;72.86;98456.06;5135313;27;19923;-71
2021/03/14 05:49:16;;;;;;;;;;;;;;;5.99;72.80;98459.44;5134996;27;19927;-71
2021/03/14 05:51:44;;;;;;;;;;;;;;;5.91;73.13;98456.09;5135099;27;20442;-71
2021/03/14 05:54:15;;;;;;;;;;;;;;;5.85;73.32;98458.63;5134976;28;19924;-71
2021/03/14 05:56:46;;;;;;;;;;;;;;;5.82;73.62;98456.06;5134646;28;19931;-71
2021/03/14 05:59:14;;;;;;;;;;;;;;;5.76;73.62;98456.91;5134869;28;19931;-71
2021/03/14 06:01:46;;;;;;;;;;;;;;;5.79;73.93;98451.00;5135124;28;19923;-71
2021/03/14 06:04:14;;;;;;;;;;;;;;;5.70;74.17;98440.91;5134915;28;20391;-71
2021/03/14 06:06:43;;;;;;;;;;;;;;;5.80;74.09;98422.34;5134797;28;19923;-71
2021/03/14 06:09:11;;;;;;;;;;;;;;;5.93;73.67;98424.00;5134829;28;19979;-71
2021/03/14 06:11:39;;;;;;;;;;;;;;;6.06;74.17;98440.88;5134637;28;19930;-71
2021/03/14 06:14:08;;;;;;;;;;;;;;;6.07;73.88;98447.59;5134742;28;20035;-70
2021/03/14 06:16:36;;;;;;;;;;;;;;;6.05;73.66;98469.56;5134957;28;19931;-71
2021/03/14 06:19:05;;;;;;;;;;;;;;;6.08;73.84;98475.47;5134692;28;19923;-71
2021/03/14 06:21:33;;;;;;;;;;;;;;;6.12;74.09;98480.53;5134740;28;19924;-71
2021/03/14 06:24:02;;;;;;;;;;;;;;;6.19;74.22;98488.09;5116701;28;19923;-71
2021/03/14 06:26:34;;;;;;;;;;;;;;;6.29;74.03;98499.88;5134595;28;19989;-71
2021/03/14 06:29:21;;;;;;;;;;;;;;;6.39;73.74;98501.53;5134687;28;19923;-71
2021/03/14 06:31:50;;;;;;;;;;;;;;;6.52;73.73;98504.88;5134664;28;20322;-71
2021/03/14 06:34:29;;;;;;;;;;;;;;;6.56;73.68;98504.03;5134606;28;19923;-71
2021/03/14 06:36:57;;;;;;;;;;;;;;;6.55;73.69;98507.41;5134667;28;19928;-71
2021/03/14 06:39:26;;;;;;;;;;;;;;;6.54;73.77;98511.63;5134579;28;19923;-71
2021/03/14 06:41:54;;;;;;;;;;;;;;;6.53;73.82;98515.00;5134440;28;20341;-71
2021/03/14 06:44:43;;;;;;;;;;;;;;;6.58;74.19;98517.53;5135025;28;19982;-71
2021/03/14 06:47:12;;;;;;;;;;;;;;;6.66;74.06;98531.03;5134440;28;19923;-71
2021/03/14 06:49:40;;;;;;;;;;;;;;;6.65;74.70;98535.25;5134436;28;19982;-71
2021/03/14 06:52:08;;;;;;;;;;;;;;;6.69;74.31;98534.38;5136331;27;19976;-71
2021/03/14 06:54:37;;;;;;;;;;;;;;;6.77;73.67;98538.59;5138256;27;19928;-72
2021/03/14 06:57:11;;;;;;;;;;;;;;;6.84;73.55;98546.16;5138029;27;19979;-72
2021/03/14 06:59:41;;;;;;;;;;;;;;;6.92;73.80;98548.66;5138191;27;20018;-72
2021/03/14 07:02:11;;;;;;;;;;;;;;;7.00;73.83;98546.94;5138071;27;19930;-71
2021/03/14 07:04:40;;;;;;;;;;;;;;;6.97;73.56;98552.00;5138593;27;19930;-71
2021/03/14 07:07:12;;;;;;;;;;;;;;;7.06;74.11;98557.03;5137828;27;19931;-72
2021/03/14 07:09:40;;;;;;;;;;;;;;;7.10;73.92;98554.47;5137990;27;19966;-71
2021/03/14 07:12:19;;;;;;;;;;;;;;;7.17;73.82;98552.78;5137985;27;19924;-71
2021/03/14 07:14:47;;;;;;;;;;;;;;;7.22;74.33;98551.88;5137920;27;20265;-72
2021/03/14 07:17:25;;;;;;;;;;;;;;;7.28;73.96;98558.63;5138272;27;19948;-72
2021/03/14 07:19:56;;;;;;;;;;;;;;;7.38;74.42;98565.31;5137790;27;20017;-71
2021/03/14 07:22:25;;;;;;;;;;;;;;;7.49;74.33;98562.69;5137761;27;19960;-72
2021/03/14 07:24:54;;;;;;;;;;;;;;;7.56;73.83;98557.56;5137593;27;19924;-72
2021/03/14 07:27:25;;;;;;;;;;;;;;;7.60;73.64;98556.72;5137687;27;20019;-71
2021/03/14 07:29:55;;;;;;;;;;;;;;;7.60;73.11;98556.72;5137808;27;19945;-72
2021/03/14 07:32:24;;;;;;;;;;;;;;;7.65;73.15;98555.00;5137884;27;19930;-72
2021/03/14 07:34:52;;;;;;;;;;;;;;;7.71;72.42;98554.09;5137355;27;20422;-72
2021/03/14 07:37:22;;;;;;;;;;;;;;;7.76;72.09;98543.06;5137263;27;19923;-72
2021/03/14 07:39:49;;;;;;;;;;;;;;;7.78;71.94;98536.25;5137309;27;19968;-72
2021/03/14 07:42:20;;;;;;;;;;;;;;;7.82;72.36;98529.47;5137840;27;20000;-72
2021/03/14 07:44:48;;;;;;;;;;;;;;;7.83;71.70;98529.44;5137525;27;19923;-72
2021/03/14 07:47:17;;;;;;;;;;;;;;;7.87;70.84;98531.09;5137095;27;19927;-72
2021/03/14 07:49:48;;;;;;;;;;;;;;;7.92;71.16;98536.97;5137092;27;19924;-72
2021/03/14 07:52:20;;;;;;;;;;;;;;;7.91;71.27;98542.94;5137164;27;19927;-72
2021/03/14 07:54:51;;;;;;;;;;;;;;;7.95;70.92;98534.41;5137148;27;20334;-72
2021/03/14 07:57:23;;;;;;;;;;;;;;;7.96;71.34;98545.44;5136933;27;20357;-72
2021/03/14 07:59:50;;;;;;;;;;;;;;;8.05;71.05;98556.34;5137229;27;20381;-71
2021/03/14 08:02:30;;;;;;;;;;;;;;;8.13;70.66;98554.56;5136696;27;20010;-72
2021/03/14 08:05:00;;;;;;;;;;;;;;;8.13;70.71;98544.41;5136582;27;19930;-71
2021/03/14 08:07:38;;;;;;;;;;;;;;;8.19;71.11;98542.66;5136581;27;19923;-72
2021/03/14 08:10:07;;;;;;;;;;;;;;;8.13;70.39;98544.41;5137099;27;19924;-71
2021/03/14 08:12:36;;;;;;;;;;;;;;;8.15;70.69;98546.09;5136695;27;20018;-71
2021/03/14 08:15:21;;;;;;;;;;;;;;;8.13;71.04;98544.41;5136610;27;20433;-71
2021/03/14 08:17:53;;;;;;;;;;;;;;;8.17;70.90;98544.38;5136836;27;19923;-71
2021/03/14 08:20:32;;;;;;;;;;;;;;;8.11;70.56;98556.28;5118528;27;20365;-71
2021/03/14 08:23:01;;;;;;;;;;;;;;;8.15;70.94;98563.88;5136535;27;19939;-71
2021/03/14 08:25:36;;;;;;;;;;;;;;;8.18;71.09;98561.31;5118314;27;19966;-72
2021/03/14 08:28:19;;;;;;;;;;;;;;;8.18;70.93;98561.31;5117886;27;19974;-72
2021/03/14 08:30:47;;;;;;;;;;;;;;;8.17;70.35;98574.88;5117669;27;20022;-71
2021/03/14 08:33:26;;;;;;;;;;;;;;;8.22;70.95;98583.31;5117891;27;19992;-71
2021/03/14 08:36:10;;;;;;;;;;;;;;;8.27;70.74;98579.06;5118018;27;19924;-72
2021/03/14 08:38:49;;;;;;;;;;;;;;;8.33;70.74;98589.16;5136105;27;19930;-72
2021/03/14 08:41:22;;;;;;;;;;;;;;;8.34;70.63;98598.47;5117835;27;20359;-72
2021/03/14 08:43:59;;;;;;;;;;;;;;;8.40;70.55;98603.47;5136071;27;20005;-72
2021/03/14 08:46:52;;;;;;;;;;;;;;;8.44;70.81;98615.34;5118052;27;20026;-72
2021/03/14 08:49:23;;;;;;;;;;;;;;;8.50;70.10;98610.19;5130799;27;19924;-71
2021/03/14 08:51:51;;;;;;;;;;;;;;;8.55;70.46;98614.38;5135886;27;19924;-72
2021/03/14 08:54:39;;;;;;;;;;;;;;;8.61;70.17;98613.47;5117790;27;20006;-71
2021/03/14 08:57:12;;;;;;;;;;;;;;;8.62;70.55;98620.22;5117574;27;20014;-72
2021/03/14 08:59:45;;;;;;;;;;;;;;;8.69;71.17;98621.84;5135770;27;19931;-72
2021/03/14 09:02:20;;;;;;;;;;;;;;;8.72;70.00;98626.91;5134894;27;20458;-71
2021/03/14 09:04:49;;;;;;;;;;;;;;;8.78;70.32;98626.88;5117597;27;20319;-72
2021/03/14 09:07:32;;;;;;;;;;;;;;;8.82;70.53;98625.09;5117248;27;19963;-72
2021/03/14 09:10:08;;;;;;;;;;;;;;;8.87;69.98;98626.75;5135519;27;19931;-71
2021/03/14 09:12:59;;;;;;;;;;;;;;;8.85;69.62;98623.41;5135472;27;19973;-72
2021/03/14 09:15:35;;;;;;;;;;;;;;;8.96;70.11;98626.66;5116756;27;20423;-71
2021/03/14 09:18:14;;;;;;;;;;;;;;;9.02;69.54;98630.84;5135334;27;19925;-72
2021/03/14 09:20:42;;;;;;;;;;;;;;;9.08;68.96;98634.13;5135294;27;20357;-72
2021/03/14 09:23:13;;;;;;;;;;;;;;;9.15;69.00;98640.00;5117033;27;19973;-72
2021/03/14 09:25:51;;;;;;;;;;;;;;;9.16;67.89;98644.22;5117014;27;20341;-71
2021/03/14 09:28:23;;;;;;;;;;;;;;;9.23;68.53;98645.84;5116909;27;19930;-72
2021/03/14 09:30:54;;;;;;;;;;;;;;;9.31;67.31;98649.97;5135257;27;20420;-72
2021/03/14 09:33:24;;;;;;;;;;;;;;;9.38;66.58;98654.13;5135191;27;20292;-71
2021/03/14 09:36:14;;;;;;;;;;;;;;;9.45;67.20;98648.09;5134834;27;19952;-72
2021/03/14 09:38:57;;;;;;;;;;;;;;;9.55;65.62;98642.91;5116929;27;20429;-72
2021/03/14 09:41:42;;;;;;;;;;;;;;;9.64;64.88;98647.84;5135125;27;19930;-72
2021/03/14 09:44:16;;;;;;;;;;;;;;;9.69;63.74;98636.75;5117192;27;19927;-71
2021/03/14 09:46:55;;;;;;;;;;;;;;;9.72;63.81;98634.13;5135012;27;20006;-72
2021/03/14 09:49:40;;;;;;;;;;;;;;;9.84;63.72;98631.41;5116697;27;20401;-71
2021/03/14 09:52:12;;;;;;;;;;;;;;;9.87;63.22;98620.34;5135176;27;19927;-72
2021/03/14 09:54:40;;;;;;;;;;;;;;;9.89;62.82;98623.69;5135416;27;19924;-72
2021/03/14 09:57:09;;;;;;;;;;;;;;;9.91;62.35;98622.00;5116542;28;19946;-72
2021/03/14 09:59:50;;;;;;;;;;;;;;;9.85;61.92;98617.81;5101080;28;19955;-72
2021/03/14 10:02:36;;;;;;;;;;;;;;;9.92;59.99;98608.38;5116563;28;19923;-72
2021/03/14 10:05:27;;;;;;;;;;;;;;;9.92;60.11;98618.56;5133929;28;20073;-72
2021/03/14 10:07:56;;;;;;;;;;;;;;;9.96;59.86;98625.28;5099966;28;19931;-71
2021/03/14 10:10:24;;;;;;;;;;;;;;;10.04;59.50;98613.28;5116465;28;19986;-72
2021/03/14 10:12:59;;;;;;;;;;;;;;;10.07;58.29;98611.53;5116564;28;19930;-72
2021/03/14 10:15:32;;;;;;;;;;;;;;;10.09;58.39;98608.94;5134738;28;19972;-72
2021/03/14 10:18:06;;;;;;;;;;;;;;;10.21;58.08;98611.34;5116668;28;19923;-72
2021/03/14 10:20:36;;;;;;;;;;;;;;;10.32;57.76;98617.09;5116501;28;20010;-72
2021/03/14 10:23:09;;;;;;;;;;;;;;;10.47;57.90;98628.75;5116401;28;20281;-71
2021/03/14 10:25:52;;;;;;;;;;;;;;;10.54;57.03;98618.41;5116339;27;19927;-72
2021/03/14 10:28:36;;;;;;;;;;;;;;;10.59;57.58;98621.72;5120582;27;19977;-71
2021/03/14 10:31:15;;;;;;;;;;;;;;;10.67;57.06;98621.59;5120340;27;20376;-72
2021/03/14 10:33:49;;;;;;;;;;;;;;;10.75;56.84;98615.47;5120387;27;19968;-72
2021/03/14 10:36:19;;;;;;;;;;;;;;;10.92;56.33;98620.25;5120470;27;20019;-72
2021/03/14 10:38:55;;;;;;;;;;;;;;;10.99;55.94;98603.94;5138521;27;19923;-72
2021/03/14 10:41:39;;;;;;;;;;;;;;;11.01;55.64;98596.25;5138436;27;19988;-71
2021/03/14 10:44:10;;;;;;;;;;;;;;;11.00;55.36;98589.47;5138490;27;19930;-72
2021/03/14 10:46:59;;;;;;;;;;;;;;;11.03;55.29;98586.84;5137776;27;19967;-72
2021/03/14 10:49:36;;;;;;;;;;;;;;;11.08;54.62;98588.47;5120021;27;19976;-72
2021/03/14 10:52:13;;;;;;;;;;;;;;;11.21;54.91;98583.91;5119962;27;20026;-72
2021/03/14 10:54:44;;;;;;;;;;;;;;;11.35;54.82;98587.00;5120036;27;19923;-72
2021/03/14 10:57:21;;;;;;;;;;;;;;;11.49;54.21;98585.03;5096259;28;19967;-72
2021/03/14 11:00:04;;;;;;;;;;;;;;;11.45;53.84;98588.50;5096114;28;19956;-72
2021/03/14 11:02:42;;;;;;;;;;;;;;;11.53;53.87;98601.97;5097192;28;19924;-72
2021/03/14 11:05:19;;;;;;;;;;;;;;;11.47;53.89;98599.53;5095988;28;19931;-72
2021/03/14 11:08:01;;;;;;;;;;;;;;;11.48;53.86;98596.09;5095864;28;19924;-72
2021/03/14 11:10:40;;;;;;;;;;;;;;;11.54;53.65;98598.50;5097052;28;19951;-71
2021/03/14 11:13:21;;;;;;;;;;;;;;;11.50;53.17;98596.06;5095803;28;19932;-72
2021/03/14 11:16:05;;;;;;;;;;;;;;;11.35;52.75;98595.53;5095752;28;20297;-71
2021/03/14 11:18:39;;;;;;;;;;;;;;;11.33;52.17;98593.88;5096790;28;20377;-71
2021/03/14 11:21:21;;;;;;;;;;;;;;;11.40;52.28;98598.81;5095856;28;19924;-71
2021/03/14 11:23:49;;;;;;;;;;;;;;;11.43;51.97;98596.22;5096593;28;19950;-72
2021/03/14 11:26:36;;;;;;;;;;;;;;;11.17;51.41;98602.72;5095535;28;20023;-72
2021/03/14 11:29:05;;;;;;;;;;;;;;;11.05;51.77;98613.19;5096647;28;19924;-71
2021/03/14 11:31:42;;;;;;;;;;;;;;;11.07;51.80;98619.94;5095649;28;20399;-72
2021/03/14 11:34:15;;;;;;;;;;;;;;;11.05;51.72;98615.75;5112689;28;19928;-72
2021/03/14 11:37:03;;;;;;;;;;;;;;;11.10;51.26;98619.91;5095859;28;19924;-71
2021/03/14 11:39:44;;;;;;;;;;;;;;;11.15;51.67;98627.47;5095208;28;19977;-72
2021/03/14 11:42:21;;;;;;;;;;;;;;;11.06;51.05;98636.13;5095304;28;19924;-72
2021/03/14 11:45:16;;;;;;;;;;;;;;;11.01;50.80;98640.50;5053670;28;19935;-72
2021/03/14 11:47:44;;;;;;;;;;;;;;;10.99;50.83;98641.41;5096337;28;19928;-71
2021/03/14 11:50:36;;;;;;;;;;;;;;;10.98;50.78;98642.28;5096480;28;19924;-71
2021/03/14 11:53:06;;;;;;;;;;;;;;;10.96;50.60;98639.75;5096287;28;20423;-72
2021/03/14 11:55:41;;;;;;;;;;;;;;;10.96;49.95;98649.97;5101776;28;19925;-73
2021/03/14 11:58:10;;;;;;;;;;;;;;;10.92;49.39;98647.50;5115288;28;19924;-72
2021/03/14 12:00:38;;;;;;;;;;;;;;;10.96;49.77;98651.69;5115238;28;19928;-71
2021/03/14 12:03:06;;;;;;;;;;;;;;;10.97;49.23;98650.78;5116717;28;19924;-72
2021/03/14 12:05:44;;;;;;;;;;;;;;;11.01;49.95;98647.31;5115432;28;20474;-72
2021/03/14 12:08:28;;;;;;;;;;;;;;;11.07;49.50;98655.69;5115440;28;19955;-72
2021/03/14 12:10:56;;;;;;;;;;;;;;;11.11;50.03;98664.16;5114923;28;19930;-72
2021/03/14 12:13:31;;;;;;;;;;;;;;;11.18;49.44;98650.41;5116267;28;19931;-72
2021/03/14 12:15:59;;;;;;;;;;;;;;;11.20;48.95;98653.75;5115220;28;19966;-72
2021/03/14 12:18:27;;;;;;;;;;;;;;;11.19;49.09;98654.63;5116022;28;19924;-72
2021/03/14 12:21:00;;;;;;;;;;;;;;;11.23;49.04;98663.88;5114917;28;20408;-72
2021/03/14 12:23:36;;;;;;;;;;;;;;;11.22;48.85;98672.44;5115073;28;19931;-72
2021/03/14 12:26:14;;;;;;;;;;;;;;;11.20;48.49;98669.06;5114823;28;19924;-72
2021/03/14 12:28:46;;;;;;;;;;;;;;;11.21;48.68;98665.63;5116437;28;20352;-71
2021/03/14 12:31:16;;;;;;;;;;;;;;;11.28;48.53;98669.75;5114622;28;19928;-72
2021/03/14 12:33:47;;;;;;;;;;;;;;;11.24;47.85;98670.69;5116063;28;19951;-72
2021/03/14 12:36:17;;;;;;;;;;;;;;;11.23;47.87;98672.41;5114564;28;19930;-71
2021/03/14 12:38:58;;;;;;;;;;;;;;;11.27;47.72;98665.53;5114462;28;19981;-72
2021/03/14 12:41:26;;;;;;;;;;;;;;;11.31;47.33;98662.03;5114449;28;20381;-71
2021/03/14 12:43:58;;;;;;;;;;;;;;;11.25;46.98;98663.00;5115569;28;19967;-71
2021/03/14 12:46:28;;;;;;;;;;;;;;;11.27;46.96;98665.53;5114446;28;19927;-72
2021/03/14 12:48:56;;;;;;;;;;;;;;;11.26;47.18;98648.50;5113501;28;19924;-72
2021/03/14 12:51:25;;;;;;;;;;;;;;;11.23;46.80;98643.44;5115777;28;19951;-71
2021/03/14 12:53:53;;;;;;;;;;;;;;;11.30;46.89;98645.03;5114543;28;20014;-72
2021/03/14 12:56:24;;;;;;;;;;;;;;;11.33;46.50;98639.84;5128204;27;19923;-72
2021/03/14 12:59:02;;;;;;;;;;;;;;;11.40;46.17;98638.84;5117535;27;19930;-72
2021/03/14 13:01:33;;;;;;;;;;;;;;;11.46;45.78;98641.28;5117536;27;20023;-72
2021/03/14 13:04:01;;;;;;;;;;;;;;;11.53;45.96;98640.28;5135676;27;20004;-73
2021/03/14 13:06:30;;;;;;;;;;;;;;;11.50;45.22;98636.94;5135665;27;19927;-72
2021/03/14 13:08:58;;;;;;;;;;;;;;;11.40;44.46;98637.13;5135540;27;19930;-72
2021/03/14 13:11:27;;;;;;;;;;;;;;;11.46;44.67;98646.41;5135627;27;19971;-72
2021/03/14 13:13:55;;;;;;;;;;;;;;;11.46;44.78;98656.63;5135824;27;19931;-72
2021/03/14 13:16:23;;;;;;;;;;;;;;;11.49;44.44;98659.13;5135460;27;19924;-73
2021/03/14 13:18:52;;;;;;;;;;;;;;;11.40;44.82;98657.59;5135442;27;19923;-72